Latest Weather Observations for Mudgee

IDN60801

Issued at 6:23 pm EST Saturday 9 May 2026 (issued every 10 minutes, with the page automatically refreshed every 10 minutes)

About weather observations | Map of weather stations | Latest weather observations for NSW | Other Formats
Station Details ID: 062101 Name: MUDGEE AIRPORT AWS Lat: -32.56 Lon: 149.61 Height: 471.0 m
Data from the previous 72 hours. | See also: Recent months at Mudgee
Date/Time
EST
Temp
°C
App
Temp
°C
Dew
Point
°C
Rel
Hum
%
Delta-T
°C
Wind Press
QNH
hPa
Press
MSL
hPa
Rain since
9am
mm
Dir  Spd
km/h
Gust
km/h
Spd
kts
Gust
kts
09/06:00pm 14.5 12.6 4.8 52 4.6 NW 4 9 2 5 1024.4 1024.3 0.0
09/05:30pm 16.2 13.8 5.2 48 5.4 NNW 7 9 4 5 1024.0 1023.9 0.0
09/05:00pm 17.6 14.7 4.9 43 6.2 NNW 9 11 5 6 1023.6 1023.6 0.0
09/04:30pm 19.4 16.5 4.4 37 7.4 NNW 9 15 5 8 1023.4 1023.4 0.0
09/04:00pm 20.2 17.0 5.1 37 7.5 N 11 19 6 10 1023.3 1023.3 0.0
09/03:30pm 20.2 16.9 4.7 36 7.7 NNW 11 17 6 9 1023.2 1023.2 0.0
09/03:00pm 20.4 17.5 4.8 36 7.8 NNW 9 13 5 7 1023.2 1023.2 0.0
09/02:30pm 20.3 17.0 4.8 36 7.7 NW 11 17 6 9 1023.3 1023.3 0.0
09/02:00pm 20.2 17.4 5.1 37 7.5 WSW 9 15 5 8 1023.3 1023.3 0.0
09/01:30pm 19.4 16.5 4.4 37 7.4 WNW 9 15 5 8 1023.5 1023.5 0.0
09/01:00pm 19.0 15.4 5.1 40 6.9 WNW 13 19 7 10 1023.9 1023.8 0.0
09/12:30pm 19.2 16.8 5.3 40 6.9 W 7 15 4 8 1024.2 1024.1 0.0
09/12:00pm 18.4 16.2 6.3 45 6.1 N 7 15 4 8 1024.8 1024.8 0.0
09/11:30am 17.7 15.7 6.9 49 5.5 NW 7 17 4 9 1025.1 1025.1 0.0
09/11:00am 17.5 15.7 7.3 51 5.2 S 6 9 3 5 1025.4 1025.4 0.0
09/10:30am 15.5 14.5 7.5 59 4.1 NW 2 7 1 4 1025.7 1025.7 0.0
09/10:00am 14.6 13.7 7.9 64 3.4 S 2 9 1 5 1025.9 1025.9 0.0
09/09:30am 12.2 11.7 7.9 75 2.2 CALM 0 6 0 3 1026.2 1026.1 0.0
09/09:00am 10.5 8.8 7.7 83 1.4 SE 6 9 3 5 1026.2 1026.1 0.0
09/08:30am 8.0 7.4 7.2 95 0.4 CALM 0 0 0 0 1026.0 1026.0 0.0
09/08:00am 6.5 5.6 6.2 98 0.1 CALM 0 0 0 0 1025.7 1025.7 0.0
09/07:30am 4.9 3.7 4.6 98 0.1 CALM 0 0 0 0 1025.3 1025.3 0.0
09/07:00am 3.5 2.0 3.2 98 0.1 CALM 0 0 0 0 1025.2 1025.2 0.0
09/06:30am 3.0 1.1 2.7 98 0.1 ENE 2 9 1 5 1024.8 1024.8 0.0
09/06:00am 2.1 -0.9 1.8 98 0.1 NE 7 11 4 6 1024.4 1024.3 0.0
09/05:30am 2.9 0.6 2.6 98 0.1 NE 4 9 2 5 1024.0 1023.9 0.0
09/05:00am 2.6 -0.7 2.3 98 0.1 NE 9 11 5 6 1023.7 1023.7 0.0
09/04:30am 3.9 0.8 3.6 98 0.1 NE 9 11 5 6 1023.6 1023.6 0.0
09/04:00am 3.3 0.5 3.0 98 0.1 NNE 7 11 4 6 1023.5 1023.5 0.0
09/03:30am 4.5 1.5 4.2 98 0.1 NE 9 13 5 7 1023.4 1023.4 0.0
09/03:00am 5.2 2.9 4.9 98 0.1 NE 6 9 3 5 1023.6 1023.6 0.0
09/02:30am 6.2 3.6 5.9 98 0.1 ENE 9 13 5 7 1023.7 1023.7 0.0
09/02:00am 6.2 4.9 5.8 97 0.2 N 2 11 1 6 1023.7 1023.7 0.0
09/01:30am 6.6 3.9 5.6 93 0.5 NE 9 13 5 7 1023.7 1023.7 0.0
09/01:00am 8.6 7.5 6.9 89 0.8 NNE 2 6 1 3 1023.7 1023.7 0.0
09/12:30am 7.8 5.6 6.3 90 0.7 NNE 7 9 4 5 1023.7 1023.7 0.0
09/12:00am 7.5 5.2 5.8 89 0.8 WNW 7 15 4 8 1023.7 1023.7 0.0
 
Date/Time
EST
Temp
°C
App
Temp
°C
Dew
Point
°C
Rel
Hum
%
Delta-T
°C
Wind Press
QNH
hPa
Press
MSL
hPa
Rain since
9am
mm
Dir  Spd
km/h
Gust
km/h
Spd
kts
Gust
kts
08/11:30pm 8.0 5.7 5.6 85 1.1 WNW 7 11 4 6 1023.7 1023.7 0.0
08/11:00pm 9.5 7.4 6.6 82 1.4 WNW 7 9 4 5 1024.0 1023.9 0.0
08/10:30pm 9.5 6.2 6.4 81 1.5 WSW 13 17 7 9 1024.0 1023.9 0.0
08/10:00pm 11.3 8.9 6.8 74 2.2 W 9 11 5 6 1024.2 1024.1 0.0
08/09:30pm 11.9 10.0 7.4 74 2.2 W 7 9 4 5 1024.2 1024.1 0.0
08/09:00pm 11.9 10.0 6.8 71 2.5 WSW 6 9 3 5 1024.0 1023.9 0.0
08/08:30pm 12.0 9.9 6.5 69 2.7 W 7 13 4 7 1023.9 1023.8 0.0
08/08:00pm 12.1 8.4 6.2 67 2.8 WSW 15 22 8 12 1023.5 1023.5 0.0
08/07:30pm 12.0 8.3 6.1 67 2.8 W 15 19 8 10 1023.3 1023.3 0.0
08/07:00pm 12.3 10.0 5.7 64 3.2 W 7 11 4 6 1023.0 1023.0 0.0
08/06:30pm 12.3 9.2 5.5 63 3.2 WSW 11 20 6 11 1022.6 1022.5 0.0
08/06:00pm 11.9 7.0 5.3 64 3.1 WSW 20 33 11 18 1022.1 1022.0 0.0
08/05:30pm 12.3 7.0 5.2 62 3.4 SW 22 30 12 16 1022.0 1021.9 0.0
08/05:00pm 12.3 6.7 5.2 62 3.4 SW 24 39 13 21 1021.7 1021.6 0.0
08/04:30pm 12.5 6.9 5.2 61 3.5 SW 24 35 13 19 1021.4 1021.4 0.0
08/04:00pm 13.2 6.4 4.9 57 3.9 WSW 30 43 16 23 1021.3 1021.3 0.0
08/03:30pm 14.2 6.0 5.0 54 4.4 WSW 37 46 20 25 1021.0 1021.0 0.0
08/03:00pm 14.7 7.3 5.2 53 4.6 WSW 33 43 18 23 1020.8 1020.7 0.0
08/02:30pm 14.6 7.4 4.9 52 4.7 WSW 32 37 17 20 1020.7 1020.6 0.0
08/02:00pm 14.6 7.9 5.4 54 4.4 WSW 30 41 16 22 1020.8 1020.7 0.0
08/01:38pm 14.3 7.5 4.9 53 4.5 WSW 30 48 16 26 1021.1 1021.1 0.0
08/01:30pm 14.0 7.2 4.9 54 4.3 WSW 30 39 16 21 1021.1 1021.1 0.0
08/01:00pm 14.2 6.0 5.0 54 4.4 WSW 37 50 20 27 1021.2 1021.2 0.0
08/12:30pm 13.5 5.7 4.9 56 4.1 WSW 35 46 19 25 1021.7 1021.6 0.0
08/12:00pm 13.4 6.1 4.6 55 4.1 WSW 32 39 17 21 1022.3 1022.2 0.0
08/11:30am 12.8 6.6 4.5 57 3.9 WSW 26 37 14 20 1022.8 1022.8 0.0
08/11:00am 12.3 6.9 4.5 59 3.6 SW 22 33 12 18 1023.3 1023.3 0.0
08/10:30am 11.2 5.3 4.0 61 3.3 SW 24 35 13 19 1023.5 1023.5 0.0
08/10:00am 11.0 5.8 3.5 60 3.4 SW 20 37 11 20 1023.4 1023.4 0.0
08/09:30am 11.2 6.0 3.7 60 3.4 WSW 20 30 11 16 1023.1 1023.1 0.0
08/09:00am 9.2 5.2 3.0 65 2.7 W 13 19 7 10 1023.1 1023.1 0.0
08/08:30am 8.8 4.0 2.6 65 2.7 WNW 17 20 9 11 1023.3 1023.3 0.0
08/08:00am 7.7 2.9 2.4 69 2.3 WNW 17 20 9 11 1023.2 1023.2 0.0
08/07:30am 6.7 1.9 2.4 74 1.8 WNW 17 20 9 11 1023.0 1023.0 0.0
08/07:00am 5.6 1.9 2.1 78 1.4 NW 11 13 6 7 1022.9 1022.9 0.0
08/06:30am 6.7 3.0 2.2 73 1.9 WNW 11 13 6 7 1022.7 1022.6 0.0
08/06:00am 6.6 2.9 2.3 74 1.8 W 11 13 6 7 1022.6 1022.5 0.0
08/05:30am 6.1 4.0 2.0 75 1.7 WNW 2 9 1 5 1022.4 1022.3 0.0
08/05:00am 6.0 2.3 2.3 77 1.5 WSW 11 17 6 9 1022.2 1022.1 0.0
08/04:30am 5.5 2.1 1.6 76 1.6 W 9 13 5 7 1022.3 1022.2 0.0
08/04:00am 5.2 0.9 1.3 76 1.6 WNW 13 17 7 9 1022.0 1021.9 0.0
08/03:30am 5.4 1.1 1.0 73 1.8 WNW 13 17 7 9 1022.0 1021.9 0.0
08/03:00am 4.8 1.8 0.8 75 1.6 NNW 6 9 3 5 1022.2 1022.1 0.0
08/02:30am 5.2 2.1 0.4 71 1.9 NW 6 7 3 4 1022.2 1022.1 0.0
08/02:00am 6.1 2.1 0.6 68 2.2 SW 11 24 6 13 1022.4 1022.3 0.0
08/01:30am 5.7 1.3 0.5 69 2.1 SW 13 30 7 16 1022.5 1022.4 0.0
08/01:00am 5.9 0.8 0.5 68 2.2 SW 17 28 9 15 1022.8 1022.8 0.0
08/12:30am 5.8 0.6 0.4 68 2.2 WSW 17 22 9 12 1022.8 1022.8 0.0
08/12:00am 6.3 0.8 0.4 66 2.4 SW 19 30 10 16 1022.9 1022.9 0.0
 
Date/Time
EST
Temp
°C
App
Temp
°C
Dew
Point
°C
Rel
Hum
%
Delta-T
°C
Wind Press
QNH
hPa
Press
MSL
hPa
Rain since
9am
mm
Dir  Spd
km/h
Gust
km/h
Spd
kts
Gust
kts
07/11:30pm 6.1 0.9 0.0 65 2.4 SW 17 26 9 14 1022.8 1022.8 0.0
07/11:00pm 6.3 0.7 0.0 64 2.5 WSW 19 26 10 14 1023.0 1023.0 0.0
07/10:30pm 5.9 1.0 -0.2 65 2.4 WSW 15 19 8 10 1023.0 1023.0 0.0
07/10:00pm 6.6 0.4 -0.1 62 2.7 WSW 22 33 12 18 1023.0 1023.0 0.0
07/09:30pm 6.9 1.1 -0.1 61 2.8 WSW 20 28 11 15 1023.1 1023.1 0.0
07/09:00pm 6.6 0.9 -0.4 61 2.8 WSW 19 22 10 12 1023.1 1023.1 0.0
07/08:30pm 7.2 1.9 -0.7 57 3.1 SW 17 19 9 10 1022.9 1022.9 0.0
07/08:00pm 7.3 2.0 -0.9 56 3.2 WSW 17 26 9 14 1022.7 1022.6 0.0
07/07:30pm 7.6 2.7 -0.8 55 3.3 WSW 15 28 8 15 1022.5 1022.4 0.0
07/07:00pm 7.8 2.4 -1.4 52 3.6 SW 17 22 9 12 1022.1 1022.0 0.0
07/06:30pm 8.6 2.8 -1.8 48 4.1 SW 19 26 10 14 1021.7 1021.6 0.0
07/06:00pm 8.3 3.2 -1.8 49 3.9 WSW 15 20 8 11 1021.3 1021.3 0.0
07/05:30pm 9.1 2.3 -2.2 45 4.4 WSW 24 33 13 18 1020.8 1020.7 0.0
07/05:00pm 9.8 2.9 -2.5 42 4.8 WSW 24 39 13 21 1020.4 1020.3 0.0
07/04:30pm 10.8 3.1 -3.3 37 5.4 WSW 28 41 15 22 1020.0 1019.9 0.0
07/04:00pm 11.4 3.7 -3.1 36 5.6 WSW 28 43 15 23 1019.7 1019.6 0.0
07/03:30pm 11.6 2.5 -3.3 35 5.8 WSW 35 48 19 26 1019.5 1019.4 0.0
07/03:00pm 11.9 2.5 -2.7 36 5.8 WSW 37 52 20 28 1019.2 1019.2 0.0
07/02:30pm 11.9 2.8 -3.4 34 6.0 WSW 35 54 19 29 1019.1 1019.0 0.0
07/02:28pm 12.2 3.5 -3.6 33 6.2 WSW 33 54 18 29 1019.1 1019.0 0.0
07/02:00pm 11.8 2.4 -3.1 35 5.8 WSW 37 54 20 29 1019.0 1018.9 0.0
07/01:54pm 12.2 3.7 -3.2 34 6.1 SW 32 50 17 27 1019.0 1018.9 0.0
07/01:30pm 12.4 3.0 -2.6 35 6.0 WSW 37 50 20 27 1018.8 1018.7 0.0
07/01:08pm 12.7 3.7 -2.7 34 6.2 WSW 35 54 19 29 1018.9 1018.8 0.0
07/01:00pm 12.2 2.8 -2.8 35 5.9 WSW 37 46 20 25 1018.8 1018.7 0.0
07/12:59pm 12.3 2.9 -3.1 34 6.1 WSW 37 46 20 25 1018.7 1018.6 0.0
07/12:34pm 12.3 2.9 -3.1 34 6.1 WSW 37 56 20 30 1018.5 1018.4 0.0
07/12:30pm 12.5 2.8 -2.5 35 6.0 WSW 39 50 21 27 1018.7 1018.6 0.0
07/12:00pm 12.1 3.1 -2.5 36 5.8 WSW 35 50 19 27 1018.7 1018.6 0.0
07/11:30am 11.7 3.4 -1.8 39 5.5 SW 32 46 17 25 1018.8 1018.7 0.0
07/11:00am 11.1 3.8 2.2 54 3.9 WSW 30 43 16 23 1018.8 1018.7 0.0
07/10:47am 12.7 4.2 5.1 60 3.6 W 39 59 21 32 1018.8 1018.7 0.0
07/10:43am 12.6 4.0 4.8 59 3.7 W 39 59 21 32 1018.6 1018.5 0.0
07/10:38am 12.0 4.7 4.7 61 3.4 W 32 52 17 28 1018.6 1018.5 0.0
07/10:30am 11.5 5.0 6.4 71 2.5 WSW 30 43 16 23 1018.5 1018.4 0.0
07/10:00am 12.0 6.2 7.9 76 2.1 W 28 39 15 21 1018.2 1018.1 0.0
07/09:30am 10.3 5.1 7.2 81 1.5 W 24 35 13 19 1018.2 1018.1 0.0
07/09:00am 9.6 5.9 7.9 89 0.8 WNW 17 20 9 11 1018.3 1018.2 0.0
07/08:30am 9.3 6.8 8.1 92 0.6 NNW 11 15 6 8 1018.1 1018.0 0.0
07/08:00am 8.7 5.7 7.6 93 0.5 N 13 17 7 9 1018.0 1017.9 0.0
07/07:47am 8.7 6.1 7.8 94 0.4 N 11 15 6 8 1017.9 1017.8 0.0
07/07:30am 8.4 6.1 7.5 94 0.4 N 9 13 5 7 1017.8 1017.7 0.0
07/07:00am 7.2 3.9 6.3 94 0.4 NNW 13 13 7 7 1017.5 1017.4 0.0
07/06:30am 7.8 5.6 5.1 83 1.2 W 6 11 3 6 1017.4 1017.3 0.0
07/06:00am 8.0 5.3 5.5 84 1.2 W 9 15 5 8 1017.0 1016.9 0.0
07/05:30am 8.1 4.3 5.7 85 1.1 W 15 19 8 10 1017.2 1017.0 0.0
07/05:00am 8.0 4.3 6.1 88 0.9 WNW 15 19 8 10 1016.9 1016.8 0.0
07/04:30am 9.0 5.0 6.8 86 1.1 W 17 20 9 11 1016.7 1016.6 0.0
07/04:00am 7.3 5.3 6.2 93 0.5 W 6 13 3 7 1016.9 1016.8 0.0
07/03:30am 8.0 5.4 6.1 88 0.9 NW 9 11 5 6 1017.0 1016.9 0.0
07/03:00am 8.8 6.7 6.6 86 1.0 W 7 13 4 7 1017.0 1016.9 0.0
07/02:30am 8.9 6.1 6.9 87 1.0 WSW 11 15 6 8 1017.3 1017.1 0.0
07/02:00am 8.9 6.6 7.5 91 0.7 SW 9 11 5 6 1017.4 1017.3 0.0
07/01:30am 9.0 6.6 7.0 87 1.0 W 9 11 5 6 1017.6 1017.5 0.0
07/01:00am 9.5 6.4 7.3 86 1.1 WNW 13 15 7 8 1017.7 1017.6 0.0
07/12:30am 10.0 7.5 8.4 90 0.8 WSW 11 15 6 8 1017.6 1017.5 0.0
07/12:00am 8.0 5.6 6.8 92 0.6 WNW 9 11 5 6 1017.6 1017.5 0.0
 
Date/Time
EST
Temp
°C
App
Temp
°C
Dew
Point
°C
Rel
Hum
%
Delta-T
°C
Wind Press
QNH
hPa
Press
MSL
hPa
Rain since
9am
mm
Dir  Spd
km/h
Gust
km/h
Spd
kts
Gust
kts
06/11:30pm 8.9 7.0 6.7 86 1.1 N 6 9 3 5 1017.6 1017.5 0.0
06/11:00pm 8.3 5.8 6.6 89 0.8 N 9 9 5 5 1017.7 1017.6 0.0
06/10:30pm 7.2 4.8 5.2 87 0.9 NW 7 9 4 5 1017.8 1017.7 0.0
06/10:00pm 7.3 4.8 5.0 85 1.0 N 7 9 4 5 1018.0 1017.9 0.0
06/09:30pm 9.9 8.9 5.7 75 2.0 CALM 0 6 0 3 1018.2 1018.1 0.0
06/09:00pm 9.4 7.3 5.8 78 1.7 N 6 9 3 5 1018.0 1017.9 0.0
06/08:30pm 11.0 10.0 5.7 70 2.5 CALM 0 7 0 4 1018.1 1018.0 0.0
06/08:00pm 9.3 6.7 5.9 79 1.6 N 9 11 5 6 1018.0 1017.9 0.0
06/07:30pm 10.5 7.9 6.1 74 2.1 NNE 9 9 5 5 1017.8 1017.7 0.0
06/07:00pm 11.7 9.1 6.2 69 2.7 NNE 9 11 5 6 1017.7 1017.6 0.0
06/06:30pm 13.8 11.6 5.2 56 4.1 NW 6 7 3 4 1017.6 1017.5 0.0

Other formats

Comma delimited format used in spreadsheet applications
http://www.bom.gov.au/fwo/IDN60801/IDN60801.94727.axf

JavaScript Object Notation format (JSON) in row-major order
http://www.bom.gov.au/fwo/IDN60801/IDN60801.94727.json

Data quality

Most of these data are generated automatically and are frequently updated. Quality checks on data are not normally performed. It is possible for incorrect values to appear. Refer to information at About Latest Weather Observations and please check the disclaimer before using these data.